sensor_id;sensor_type;location;lat;lon;timestamp;P1;durP1;ratioP1;P2;durP2;ratioP2
1699;SDS011;847;48.058;7.810;2023-01-28T00:01:24;12.98;;;8.00;;
1699;SDS011;847;48.058;7.810;2023-01-28T00:03:51;11.18;;;8.82;;
1699;SDS011;847;48.058;7.810;2023-01-28T00:06:18;12.43;;;8.10;;
1699;SDS011;847;48.058;7.810;2023-01-28T00:08:45;10.05;;;8.00;;
1699;SDS011;847;48.058;7.810;2023-01-28T00:11:13;11.73;;;7.65;;
1699;SDS011;847;48.058;7.810;2023-01-28T00:13:40;13.75;;;8.88;;
1699;SDS011;847;48.058;7.810;2023-01-28T00:16:07;10.05;;;8.40;;
1699;SDS011;847;48.058;7.810;2023-01-28T00:18:34;14.90;;;9.77;;
1699;SDS011;847;48.058;7.810;2023-01-28T00:21:02;12.25;;;8.32;;
1699;SDS011;847;48.058;7.810;2023-01-28T00:23:31;12.55;;;8.75;;
1699;SDS011;847;48.058;7.810;2023-01-28T00:25:59;10.95;;;7.93;;
1699;SDS011;847;48.058;7.810;2023-01-28T00:28:31;11.40;;;8.85;;
1699;SDS011;847;48.058;7.810;2023-01-28T00:31:04;10.18;;;8.77;;
1699;SDS011;847;48.058;7.810;2023-01-28T00:33:33;12.30;;;9.10;;
1699;SDS011;847;48.058;7.810;2023-01-28T00:36:02;10.70;;;8.75;;
1699;SDS011;847;48.058;7.810;2023-01-28T00:38:33;11.70;;;8.90;;
1699;SDS011;847;48.058;7.810;2023-01-28T00:41:11;12.20;;;9.27;;
1699;SDS011;847;48.058;7.810;2023-01-28T00:43:41;13.75;;;8.85;;
1699;SDS011;847;48.058;7.810;2023-01-28T00:46:10;13.30;;;9.00;;
1699;SDS011;847;48.058;7.810;2023-01-28T00:48:39;12.40;;;8.90;;
1699;SDS011;847;48.058;7.810;2023-01-28T00:51:10;15.07;;;10.60;;
1699;SDS011;847;48.058;7.810;2023-01-28T00:53:42;12.53;;;8.87;;
1699;SDS011;847;48.058;7.810;2023-01-28T00:56:10;14.30;;;10.30;;
1699;SDS011;847;48.058;7.810;2023-01-28T00:58:41;11.77;;;9.03;;
1699;SDS011;847;48.058;7.810;2023-01-28T01:01:09;12.38;;;9.32;;
1699;SDS011;847;48.058;7.810;2023-01-28T01:03:38;13.02;;;9.90;;
1699;SDS011;847;48.058;7.810;2023-01-28T01:06:08;15.83;;;10.10;;
1699;SDS011;847;48.058;7.810;2023-01-28T01:08:41;13.50;;;10.73;;
1699;SDS011;847;48.058;7.810;2023-01-28T01:11:15;11.70;;;9.63;;
1699;SDS011;847;48.058;7.810;2023-01-28T01:13:50;12.30;;;9.20;;
1699;SDS011;847;48.058;7.810;2023-01-28T01:16:21;13.73;;;9.35;;
1699;SDS011;847;48.058;7.810;2023-01-28T01:18:56;12.40;;;9.45;;
1699;SDS011;847;48.058;7.810;2023-01-28T01:21:28;9.80;;;7.95;;
1699;SDS011;847;48.058;7.810;2023-01-28T01:23:59;12.40;;;9.30;;
1699;SDS011;847;48.058;7.810;2023-01-28T01:26:29;14.33;;;9.33;;
1699;SDS011;847;48.058;7.810;2023-01-28T01:28:58;13.20;;;9.90;;
1699;SDS011;847;48.058;7.810;2023-01-28T01:31:35;15.03;;;8.50;;
1699;SDS011;847;48.058;7.810;2023-01-28T01:34:09;16.13;;;9.67;;
1699;SDS011;847;48.058;7.810;2023-01-28T01:36:40;12.77;;;8.93;;
1699;SDS011;847;48.058;7.810;2023-01-28T01:39:11;12.03;;;8.53;;
1699;SDS011;847;48.058;7.810;2023-01-28T01:41:41;10.67;;;8.13;;
1699;SDS011;847;48.058;7.810;2023-01-28T01:47:32;12.07;;;8.17;;
1699;SDS011;847;48.058;7.810;2023-01-28T01:50:11;10.32;;;7.28;;
1699;SDS011;847;48.058;7.810;2023-01-28T01:52:48;10.63;;;7.67;;
1699;SDS011;847;48.058;7.810;2023-01-28T01:55:23;10.90;;;7.53;;
1699;SDS011;847;48.058;7.810;2023-01-28T01:57:55;9.43;;;8.27;;
1699;SDS011;847;48.058;7.810;2023-01-28T02:00:29;11.02;;;8.10;;
1699;SDS011;847;48.058;7.810;2023-01-28T02:02:58;12.30;;;6.90;;
1699;SDS011;847;48.058;7.810;2023-01-28T02:05:26;9.47;;;7.33;;
1699;SDS011;847;48.058;7.810;2023-01-28T02:07:53;13.02;;;7.78;;
1699;SDS011;847;48.058;7.810;2023-01-28T02:10:44;10.27;;;8.00;;
1699;SDS011;847;48.058;7.810;2023-01-28T02:13:14;11.25;;;7.18;;
1699;SDS011;847;48.058;7.810;2023-01-28T02:15:45;10.47;;;6.77;;
1699;SDS011;847;48.058;7.810;2023-01-28T02:18:17;9.05;;;6.85;;
1699;SDS011;847;48.058;7.810;2023-01-28T02:20:50;9.73;;;7.00;;
1699;SDS011;847;48.058;7.810;2023-01-28T02:23:37;9.73;;;6.67;;
1699;SDS011;847;48.058;7.810;2023-01-28T02:29:23;8.60;;;6.70;;
1699;SDS011;847;48.058;7.810;2023-01-28T02:31:57;9.07;;;6.20;;
1699;SDS011;847;48.058;7.810;2023-01-28T02:34:33;8.73;;;7.83;;
1699;SDS011;847;48.058;7.810;2023-01-28T02:37:06;9.10;;;6.33;;
1699;SDS011;847;48.058;7.810;2023-01-28T02:39:39;8.07;;;6.43;;
1699;SDS011;847;48.058;7.810;2023-01-28T02:42:11;7.00;;;6.27;;
1699;SDS011;847;48.058;7.810;2023-01-28T02:44:44;7.63;;;6.15;;
1699;SDS011;847;48.058;7.810;2023-01-28T02:47:11;7.80;;;6.87;;
1699;SDS011;847;48.058;7.810;2023-01-28T02:49:57;11.00;;;7.60;;
1699;SDS011;847;48.058;7.810;2023-01-28T02:52:31;8.40;;;7.13;;
1699;SDS011;847;48.058;7.810;2023-01-28T02:55:25;10.05;;;7.55;;
1699;SDS011;847;48.058;7.810;2023-01-28T02:58:03;8.27;;;7.37;;
1699;SDS011;847;48.058;7.810;2023-01-28T03:00:40;9.53;;;8.23;;
1699;SDS011;847;48.058;7.810;2023-01-28T03:03:17;10.67;;;7.67;;
1699;SDS011;847;48.058;7.810;2023-01-28T03:05:51;11.47;;;8.37;;
1699;SDS011;847;48.058;7.810;2023-01-28T03:08:35;10.32;;;7.28;;
1699;SDS011;847;48.058;7.810;2023-01-28T03:11:23;9.00;;;6.80;;
1699;SDS011;847;48.058;7.810;2023-01-28T03:14:09;10.83;;;7.67;;
1699;SDS011;847;48.058;7.810;2023-01-28T03:16:55;8.23;;;6.87;;
1699;SDS011;847;48.058;7.810;2023-01-28T03:19:42;8.07;;;6.78;;
1699;SDS011;847;48.058;7.810;2023-01-28T03:22:27;10.85;;;7.05;;
1699;SDS011;847;48.058;7.810;2023-01-28T03:25:15;8.33;;;6.93;;
1699;SDS011;847;48.058;7.810;2023-01-28T03:28:03;11.95;;;8.65;;
1699;SDS011;847;48.058;7.810;2023-01-28T03:30:51;13.27;;;9.07;;
1699;SDS011;847;48.058;7.810;2023-01-28T03:33:42;9.30;;;7.17;;
1699;SDS011;847;48.058;7.810;2023-01-28T03:36:28;8.50;;;7.60;;
1699;SDS011;847;48.058;7.810;2023-01-28T03:39:15;11.80;;;8.03;;
1699;SDS011;847;48.058;7.810;2023-01-28T03:41:43;10.20;;;7.60;;
1699;SDS011;847;48.058;7.810;2023-01-28T03:44:24;9.15;;;8.20;;
1699;SDS011;847;48.058;7.810;2023-01-28T03:47:09;9.75;;;7.53;;
1699;SDS011;847;48.058;7.810;2023-01-28T03:49:39;8.77;;;6.88;;
1699;SDS011;847;48.058;7.810;2023-01-28T03:52:06;10.13;;;7.47;;
1699;SDS011;847;48.058;7.810;2023-01-28T03:54:34;9.95;;;7.55;;
1699;SDS011;847;48.058;7.810;2023-01-28T03:57:01;8.95;;;7.30;;
1699;SDS011;847;48.058;7.810;2023-01-28T03:59:30;8.57;;;7.07;;
1699;SDS011;847;48.058;7.810;2023-01-28T04:01:59;8.85;;;7.20;;
1699;SDS011;847;48.058;7.810;2023-01-28T04:04:31;10.57;;;6.88;;
1699;SDS011;847;48.058;7.810;2023-01-28T04:07:02;9.00;;;7.23;;
1699;SDS011;847;48.058;7.810;2023-01-28T04:09:30;11.07;;;7.40;;
1699;SDS011;847;48.058;7.810;2023-01-28T04:11:59;8.53;;;6.87;;
1699;SDS011;847;48.058;7.810;2023-01-28T04:14:27;9.70;;;7.57;;
1699;SDS011;847;48.058;7.810;2023-01-28T04:16:58;8.63;;;7.73;;
1699;SDS011;847;48.058;7.810;2023-01-28T04:19:25;8.50;;;6.80;;
1699;SDS011;847;48.058;7.810;2023-01-28T04:22:02;8.40;;;6.65;;
1699;SDS011;847;48.058;7.810;2023-01-28T04:24:35;9.20;;;6.65;;
1699;SDS011;847;48.058;7.810;2023-01-28T04:27:04;8.87;;;7.13;;
1699;SDS011;847;48.058;7.810;2023-01-28T04:29:36;9.55;;;6.85;;
1699;SDS011;847;48.058;7.810;2023-01-28T04:32:08;9.88;;;6.95;;
1699;SDS011;847;48.058;7.810;2023-01-28T04:34:41;8.10;;;6.47;;
1699;SDS011;847;48.058;7.810;2023-01-28T04:37:12;10.15;;;5.90;;
1699;SDS011;847;48.058;7.810;2023-01-28T04:39:43;6.32;;;5.72;;
1699;SDS011;847;48.058;7.810;2023-01-28T04:42:17;8.17;;;6.50;;
1699;SDS011;847;48.058;7.810;2023-01-28T04:44:46;8.00;;;6.35;;
1699;SDS011;847;48.058;7.810;2023-01-28T04:47:15;7.85;;;6.82;;
1699;SDS011;847;48.058;7.810;2023-01-28T04:49:43;9.00;;;6.97;;
1699;SDS011;847;48.058;7.810;2023-01-28T04:52:15;7.93;;;6.28;;
1699;SDS011;847;48.058;7.810;2023-01-28T04:54:47;8.60;;;6.30;;
1699;SDS011;847;48.058;7.810;2023-01-28T04:57:15;6.83;;;5.90;;
1699;SDS011;847;48.058;7.810;2023-01-28T04:59:45;8.73;;;6.80;;
1699;SDS011;847;48.058;7.810;2023-01-28T05:02:13;9.00;;;7.30;;
1699;SDS011;847;48.058;7.810;2023-01-28T05:04:42;10.37;;;6.70;;
1699;SDS011;847;48.058;7.810;2023-01-28T05:07:11;8.90;;;7.40;;
1699;SDS011;847;48.058;7.810;2023-01-28T05:09:41;6.72;;;5.70;;
1699;SDS011;847;48.058;7.810;2023-01-28T05:12:12;9.53;;;6.80;;
1699;SDS011;847;48.058;7.810;2023-01-28T05:14:42;8.55;;;6.70;;
1699;SDS011;847;48.058;7.810;2023-01-28T05:17:13;8.95;;;6.78;;
1699;SDS011;847;48.058;7.810;2023-01-28T05:19:43;7.55;;;5.90;;
1699;SDS011;847;48.058;7.810;2023-01-28T05:22:16;7.70;;;7.00;;
1699;SDS011;847;48.058;7.810;2023-01-28T05:24:47;11.27;;;6.77;;
1699;SDS011;847;48.058;7.810;2023-01-28T05:27:16;7.37;;;6.03;;
1699;SDS011;847;48.058;7.810;2023-01-28T05:29:46;8.35;;;6.63;;
1699;SDS011;847;48.058;7.810;2023-01-28T05:32:15;7.43;;;6.05;;
1699;SDS011;847;48.058;7.810;2023-01-28T05:34:46;6.50;;;5.90;;
1699;SDS011;847;48.058;7.810;2023-01-28T05:37:14;8.47;;;6.30;;
1699;SDS011;847;48.058;7.810;2023-01-28T05:39:45;6.73;;;5.47;;
1699;SDS011;847;48.058;7.810;2023-01-28T05:42:18;8.53;;;6.30;;
1699;SDS011;847;48.058;7.810;2023-01-28T05:44:51;7.23;;;6.53;;
1699;SDS011;847;48.058;7.810;2023-01-28T05:47:26;8.07;;;5.70;;
1699;SDS011;847;48.058;7.810;2023-01-28T05:50:00;9.43;;;6.07;;
1699;SDS011;847;48.058;7.810;2023-01-28T05:52:33;7.67;;;6.37;;
1699;SDS011;847;48.058;7.810;2023-01-28T05:55:14;9.37;;;6.77;;
1699;SDS011;847;48.058;7.810;2023-01-28T05:57:41;6.20;;;4.87;;
1699;SDS011;847;48.058;7.810;2023-01-28T06:00:09;8.00;;;6.70;;
1699;SDS011;847;48.058;7.810;2023-01-28T06:02:37;8.20;;;6.30;;
1699;SDS011;847;48.058;7.810;2023-01-28T06:05:04;7.50;;;5.97;;
1699;SDS011;847;48.058;7.810;2023-01-28T06:07:32;10.77;;;6.90;;
1699;SDS011;847;48.058;7.810;2023-01-28T06:09:59;7.03;;;6.25;;
1699;SDS011;847;48.058;7.810;2023-01-28T06:12:27;7.60;;;5.70;;
1699;SDS011;847;48.058;7.810;2023-01-28T06:14:54;6.67;;;5.17;;
1699;SDS011;847;48.058;7.810;2023-01-28T06:17:21;9.10;;;6.07;;
1699;SDS011;847;48.058;7.810;2023-01-28T06:19:48;7.43;;;5.90;;
1699;SDS011;847;48.058;7.810;2023-01-28T06:22:14;7.40;;;5.73;;
1699;SDS011;847;48.058;7.810;2023-01-28T06:24:41;8.73;;;5.93;;
1699;SDS011;847;48.058;7.810;2023-01-28T06:27:08;9.53;;;6.20;;
1699;SDS011;847;48.058;7.810;2023-01-28T06:29:36;7.25;;;5.43;;
1699;SDS011;847;48.058;7.810;2023-01-28T06:32:03;7.07;;;5.73;;
1699;SDS011;847;48.058;7.810;2023-01-28T06:34:30;6.60;;;5.27;;
1699;SDS011;847;48.058;7.810;2023-01-28T06:36:57;6.77;;;6.00;;
1699;SDS011;847;48.058;7.810;2023-01-28T06:39:23;7.77;;;5.27;;
1699;SDS011;847;48.058;7.810;2023-01-28T06:41:52;5.77;;;5.10;;
1699;SDS011;847;48.058;7.810;2023-01-28T06:44:18;7.67;;;5.57;;
1699;SDS011;847;48.058;7.810;2023-01-28T06:46:48;6.53;;;4.97;;
1699;SDS011;847;48.058;7.810;2023-01-28T06:49:15;7.60;;;4.80;;
1699;SDS011;847;48.058;7.810;2023-01-28T06:51:42;7.33;;;5.37;;
1699;SDS011;847;48.058;7.810;2023-01-28T06:54:09;6.40;;;4.35;;
1699;SDS011;847;48.058;7.810;2023-01-28T06:56:35;6.03;;;5.27;;
1699;SDS011;847;48.058;7.810;2023-01-28T06:59:11;7.53;;;4.70;;
1699;SDS011;847;48.058;7.810;2023-01-28T07:01:39;7.00;;;4.73;;
1699;SDS011;847;48.058;7.810;2023-01-28T07:04:09;7.10;;;5.10;;
1699;SDS011;847;48.058;7.810;2023-01-28T07:06:37;7.30;;;5.60;;
1699;SDS011;847;48.058;7.810;2023-01-28T07:09:05;6.37;;;5.20;;
1699;SDS011;847;48.058;7.810;2023-01-28T07:11:33;6.30;;;5.03;;
1699;SDS011;847;48.058;7.810;2023-01-28T07:14:01;8.30;;;5.70;;
1699;SDS011;847;48.058;7.810;2023-01-28T07:16:30;5.63;;;4.90;;
1699;SDS011;847;48.058;7.810;2023-01-28T07:18:57;6.27;;;4.97;;
1699;SDS011;847;48.058;7.810;2023-01-28T07:21:25;5.83;;;5.00;;
1699;SDS011;847;48.058;7.810;2023-01-28T07:23:52;6.37;;;4.40;;
1699;SDS011;847;48.058;7.810;2023-01-28T07:26:20;5.70;;;4.33;;
1699;SDS011;847;48.058;7.810;2023-01-28T07:28:47;6.40;;;4.70;;
1699;SDS011;847;48.058;7.810;2023-01-28T07:31:15;5.47;;;4.10;;
1699;SDS011;847;48.058;7.810;2023-01-28T07:33:50;7.53;;;5.22;;
1699;SDS011;847;48.058;7.810;2023-01-28T07:36:18;7.50;;;5.20;;
1699;SDS011;847;48.058;7.810;2023-01-28T07:38:51;5.60;;;4.83;;
1699;SDS011;847;48.058;7.810;2023-01-28T07:41:21;8.40;;;5.67;;
1699;SDS011;847;48.058;7.810;2023-01-28T07:43:50;5.77;;;4.30;;
1699;SDS011;847;48.058;7.810;2023-01-28T07:46:18;6.63;;;4.97;;
1699;SDS011;847;48.058;7.810;2023-01-28T07:48:46;6.70;;;4.88;;
1699;SDS011;847;48.058;7.810;2023-01-28T07:51:14;5.67;;;5.00;;
1699;SDS011;847;48.058;7.810;2023-01-28T07:53:47;6.07;;;4.97;;
1699;SDS011;847;48.058;7.810;2023-01-28T07:56:23;5.43;;;4.10;;
1699;SDS011;847;48.058;7.810;2023-01-28T07:59:03;5.10;;;4.50;;
1699;SDS011;847;48.058;7.810;2023-01-28T08:01:37;5.70;;;4.85;;
1699;SDS011;847;48.058;7.810;2023-01-28T08:04:14;6.20;;;4.63;;
1699;SDS011;847;48.058;7.810;2023-01-28T08:06:57;5.50;;;4.82;;
1699;SDS011;847;48.058;7.810;2023-01-28T08:09:31;6.70;;;6.00;;
1699;SDS011;847;48.058;7.810;2023-01-28T08:12:10;17.97;;;12.73;;
1699;SDS011;847;48.058;7.810;2023-01-28T08:17:54;7.03;;;6.20;;
1699;SDS011;847;48.058;7.810;2023-01-28T08:20:35;7.00;;;6.30;;
1699;SDS011;847;48.058;7.810;2023-01-28T08:23:05;6.80;;;6.20;;
1699;SDS011;847;48.058;7.810;2023-01-28T08:25:43;8.47;;;6.43;;
1699;SDS011;847;48.058;7.810;2023-01-28T08:28:16;7.87;;;7.07;;
1699;SDS011;847;48.058;7.810;2023-01-28T08:30:48;8.10;;;6.93;;
1699;SDS011;847;48.058;7.810;2023-01-28T08:33:18;5.77;;;5.17;;
1699;SDS011;847;48.058;7.810;2023-01-28T08:35:48;6.70;;;5.20;;
1699;SDS011;847;48.058;7.810;2023-01-28T08:38:18;5.23;;;4.07;;
1699;SDS011;847;48.058;7.810;2023-01-28T08:40:47;5.70;;;4.80;;
1699;SDS011;847;48.058;7.810;2023-01-28T08:43:19;6.13;;;5.47;;
1699;SDS011;847;48.058;7.810;2023-01-28T08:45:49;8.00;;;5.80;;
1699;SDS011;847;48.058;7.810;2023-01-28T08:48:26;12.02;;;6.20;;
1699;SDS011;847;48.058;7.810;2023-01-28T08:51:02;8.27;;;5.20;;
1699;SDS011;847;48.058;7.810;2023-01-28T08:53:39;9.17;;;5.20;;
1699;SDS011;847;48.058;7.810;2023-01-28T08:56:08;5.17;;;3.90;;
1699;SDS011;847;48.058;7.810;2023-01-28T08:58:36;5.90;;;4.30;;
1699;SDS011;847;48.058;7.810;2023-01-28T09:01:05;6.65;;;4.63;;
1699;SDS011;847;48.058;7.810;2023-01-28T09:03:34;5.73;;;4.83;;
1699;SDS011;847;48.058;7.810;2023-01-28T09:06:03;5.67;;;4.47;;
1699;SDS011;847;48.058;7.810;2023-01-28T09:08:34;5.37;;;4.43;;
1699;SDS011;847;48.058;7.810;2023-01-28T09:11:06;4.90;;;4.33;;
1699;SDS011;847;48.058;7.810;2023-01-28T09:13:36;7.87;;;5.83;;
1699;SDS011;847;48.058;7.810;2023-01-28T09:16:05;7.83;;;5.33;;
1699;SDS011;847;48.058;7.810;2023-01-28T09:18:35;5.20;;;4.70;;
1699;SDS011;847;48.058;7.810;2023-01-28T09:21:03;6.77;;;5.90;;
1699;SDS011;847;48.058;7.810;2023-01-28T09:23:33;4.60;;;4.10;;
1699;SDS011;847;48.058;7.810;2023-01-28T09:26:04;6.13;;;5.63;;
1699;SDS011;847;48.058;7.810;2023-01-28T09:28:38;6.67;;;5.33;;
1699;SDS011;847;48.058;7.810;2023-01-28T09:31:09;5.00;;;3.93;;
1699;SDS011;847;48.058;7.810;2023-01-28T09:33:38;5.60;;;4.20;;
1699;SDS011;847;48.058;7.810;2023-01-28T09:36:08;6.80;;;5.17;;
1699;SDS011;847;48.058;7.810;2023-01-28T09:38:39;6.33;;;5.23;;
1699;SDS011;847;48.058;7.810;2023-01-28T09:41:14;5.90;;;4.65;;
1699;SDS011;847;48.058;7.810;2023-01-28T09:44:12;5.70;;;5.20;;
1699;SDS011;847;48.058;7.810;2023-01-28T09:46:59;5.97;;;4.80;;
1699;SDS011;847;48.058;7.810;2023-01-28T09:49:36;11.20;;;5.17;;
1699;SDS011;847;48.058;7.810;2023-01-28T09:52:22;5.53;;;4.13;;
1699;SDS011;847;48.058;7.810;2023-01-28T09:55:12;6.07;;;4.10;;
1699;SDS011;847;48.058;7.810;2023-01-28T09:57:46;5.00;;;4.50;;
1699;SDS011;847;48.058;7.810;2023-01-28T10:00:25;5.70;;;4.53;;
1699;SDS011;847;48.058;7.810;2023-01-28T10:03:27;7.50;;;4.90;;
1699;SDS011;847;48.058;7.810;2023-01-28T10:06:04;5.83;;;4.30;;
1699;SDS011;847;48.058;7.810;2023-01-28T10:08:46;5.53;;;4.00;;
1699;SDS011;847;48.058;7.810;2023-01-28T10:11:40;5.67;;;3.93;;
1699;SDS011;847;48.058;7.810;2023-01-28T10:14:19;4.23;;;3.70;;
1699;SDS011;847;48.058;7.810;2023-01-28T10:17:03;5.60;;;3.63;;
1699;SDS011;847;48.058;7.810;2023-01-28T10:19:40;5.80;;;4.07;;
1699;SDS011;847;48.058;7.810;2023-01-28T10:22:15;5.40;;;4.37;;
1699;SDS011;847;48.058;7.810;2023-01-28T10:24:46;4.90;;;3.87;;
1699;SDS011;847;48.058;7.810;2023-01-28T10:27:23;3.97;;;3.57;;
1699;SDS011;847;48.058;7.810;2023-01-28T10:29:54;5.30;;;3.50;;
1699;SDS011;847;48.058;7.810;2023-01-28T10:32:32;6.80;;;5.10;;
1699;SDS011;847;48.058;7.810;2023-01-28T10:35:07;4.13;;;3.73;;
1699;SDS011;847;48.058;7.810;2023-01-28T10:37:35;4.90;;;4.23;;
1699;SDS011;847;48.058;7.810;2023-01-28T10:40:06;4.50;;;4.10;;
1699;SDS011;847;48.058;7.810;2023-01-28T10:42:38;4.17;;;3.77;;
1699;SDS011;847;48.058;7.810;2023-01-28T10:45:06;4.78;;;3.80;;
1699;SDS011;847;48.058;7.810;2023-01-28T10:47:43;5.57;;;4.60;;
1699;SDS011;847;48.058;7.810;2023-01-28T10:50:14;6.07;;;5.10;;
1699;SDS011;847;48.058;7.810;2023-01-28T10:52:55;9.77;;;5.60;;
1699;SDS011;847;48.058;7.810;2023-01-28T10:55:37;9.90;;;5.67;;
1699;SDS011;847;48.058;7.810;2023-01-28T10:58:33;5.57;;;4.10;;
1699;SDS011;847;48.058;7.810;2023-01-28T11:01:14;5.83;;;4.60;;
1699;SDS011;847;48.058;7.810;2023-01-28T11:03:52;5.77;;;5.20;;
1699;SDS011;847;48.058;7.810;2023-01-28T11:06:24;6.37;;;4.97;;
1699;SDS011;847;48.058;7.810;2023-01-28T11:08:55;5.60;;;4.83;;
1699;SDS011;847;48.058;7.810;2023-01-28T11:11:31;6.23;;;5.10;;
1699;SDS011;847;48.058;7.810;2023-01-28T11:13:59;4.87;;;4.37;;
1699;SDS011;847;48.058;7.810;2023-01-28T11:16:29;5.17;;;4.30;;
1699;SDS011;847;48.058;7.810;2023-01-28T11:19:15;9.90;;;7.43;;
1699;SDS011;847;48.058;7.810;2023-01-28T11:21:48;3.53;;;3.00;;
1699;SDS011;847;48.058;7.810;2023-01-28T11:24:28;4.23;;;3.70;;
1699;SDS011;847;48.058;7.810;2023-01-28T11:27:14;6.73;;;4.00;;
1699;SDS011;847;48.058;7.810;2023-01-28T11:29:43;4.53;;;3.93;;
1699;SDS011;847;48.058;7.810;2023-01-28T11:32:16;4.73;;;3.37;;
1699;SDS011;847;48.058;7.810;2023-01-28T11:34:48;4.57;;;3.60;;
1699;SDS011;847;48.058;7.810;2023-01-28T11:37:19;4.30;;;3.90;;
1699;SDS011;847;48.058;7.810;2023-01-28T11:39:47;4.83;;;4.30;;
1699;SDS011;847;48.058;7.810;2023-01-28T11:42:15;6.47;;;4.23;;
1699;SDS011;847;48.058;7.810;2023-01-28T11:44:44;5.93;;;4.30;;
1699;SDS011;847;48.058;7.810;2023-01-28T11:47:23;5.47;;;4.60;;
1699;SDS011;847;48.058;7.810;2023-01-28T11:50:12;5.00;;;3.50;;
1699;SDS011;847;48.058;7.810;2023-01-28T11:52:50;5.20;;;4.10;;
1699;SDS011;847;48.058;7.810;2023-01-28T11:55:26;4.73;;;4.20;;
1699;SDS011;847;48.058;7.810;2023-01-28T11:58:07;5.60;;;5.00;;
1699;SDS011;847;48.058;7.810;2023-01-28T12:00:46;5.40;;;3.93;;
1699;SDS011;847;48.058;7.810;2023-01-28T12:03:22;5.97;;;4.53;;
1699;SDS011;847;48.058;7.810;2023-01-28T12:06:09;5.10;;;4.50;;
1699;SDS011;847;48.058;7.810;2023-01-28T12:08:48;5.97;;;4.57;;
1699;SDS011;847;48.058;7.810;2023-01-28T12:11:23;6.40;;;4.67;;
1699;SDS011;847;48.058;7.810;2023-01-28T12:14:18;5.87;;;4.67;;
1699;SDS011;847;48.058;7.810;2023-01-28T12:16:57;8.50;;;6.90;;
1699;SDS011;847;48.058;7.810;2023-01-28T12:19:41;5.17;;;4.07;;
1699;SDS011;847;48.058;7.810;2023-01-28T12:22:27;6.87;;;5.07;;
1699;SDS011;847;48.058;7.810;2023-01-28T12:25:21;7.67;;;5.37;;
1699;SDS011;847;48.058;7.810;2023-01-28T12:28:02;5.00;;;4.07;;
1699;SDS011;847;48.058;7.810;2023-01-28T12:30:42;4.17;;;3.77;;
1699;SDS011;847;48.058;7.810;2023-01-28T12:33:31;8.20;;;4.40;;
1699;SDS011;847;48.058;7.810;2023-01-28T12:36:22;7.23;;;5.03;;
1699;SDS011;847;48.058;7.810;2023-01-28T12:39:09;7.10;;;4.33;;
1699;SDS011;847;48.058;7.810;2023-01-28T12:41:45;5.90;;;4.40;;
1699;SDS011;847;48.058;7.810;2023-01-28T12:44:18;5.73;;;4.47;;
1699;SDS011;847;48.058;7.810;2023-01-28T12:46:50;5.10;;;4.07;;
1699;SDS011;847;48.058;7.810;2023-01-28T12:49:20;4.70;;;4.20;;
1699;SDS011;847;48.058;7.810;2023-01-28T12:51:53;5.93;;;4.40;;
1699;SDS011;847;48.058;7.810;2023-01-28T12:54:27;6.40;;;4.73;;
1699;SDS011;847;48.058;7.810;2023-01-28T12:56:59;8.03;;;5.40;;
1699;SDS011;847;48.058;7.810;2023-01-28T12:59:27;9.83;;;6.00;;
1699;SDS011;847;48.058;7.810;2023-01-28T13:02:00;7.33;;;5.57;;
1699;SDS011;847;48.058;7.810;2023-01-28T13:04:39;5.43;;;4.40;;
1699;SDS011;847;48.058;7.810;2023-01-28T13:07:11;6.53;;;5.57;;
1699;SDS011;847;48.058;7.810;2023-01-28T13:09:44;5.07;;;4.10;;
1699;SDS011;847;48.058;7.810;2023-01-28T13:12:19;10.13;;;7.03;;
1699;SDS011;847;48.058;7.810;2023-01-28T13:14:52;6.97;;;4.90;;
1699;SDS011;847;48.058;7.810;2023-01-28T13:17:24;7.37;;;5.20;;
1699;SDS011;847;48.058;7.810;2023-01-28T13:19:54;6.20;;;4.53;;
1699;SDS011;847;48.058;7.810;2023-01-28T13:22:30;5.20;;;4.10;;
1699;SDS011;847;48.058;7.810;2023-01-28T13:27:53;7.40;;;5.97;;
1699;SDS011;847;48.058;7.810;2023-01-28T13:30:22;6.13;;;4.90;;
1699;SDS011;847;48.058;7.810;2023-01-28T13:32:55;6.20;;;5.60;;
1699;SDS011;847;48.058;7.810;2023-01-28T13:35:27;7.23;;;5.30;;
1699;SDS011;847;48.058;7.810;2023-01-28T13:38:05;7.60;;;5.07;;
1699;SDS011;847;48.058;7.810;2023-01-28T13:40:35;6.90;;;4.93;;
1699;SDS011;847;48.058;7.810;2023-01-28T13:43:23;5.27;;;4.77;;
1699;SDS011;847;48.058;7.810;2023-01-28T13:45:56;6.57;;;4.90;;
1699;SDS011;847;48.058;7.810;2023-01-28T13:48:26;5.90;;;4.30;;
1699;SDS011;847;48.058;7.810;2023-01-28T13:50:57;5.80;;;4.07;;
1699;SDS011;847;48.058;7.810;2023-01-28T13:53:29;5.27;;;4.60;;
1699;SDS011;847;48.058;7.810;2023-01-28T13:56:07;6.47;;;5.40;;
1699;SDS011;847;48.058;7.810;2023-01-28T14:01:55;4.43;;;4.00;;
1699;SDS011;847;48.058;7.810;2023-01-28T14:04:44;4.13;;;3.73;;
1699;SDS011;847;48.058;7.810;2023-01-28T14:07:39;5.03;;;3.97;;
1699;SDS011;847;48.058;7.810;2023-01-28T14:10:32;7.03;;;6.13;;
1699;SDS011;847;48.058;7.810;2023-01-28T14:13:14;7.00;;;5.30;;
1699;SDS011;847;48.058;7.810;2023-01-28T14:16:14;7.40;;;6.20;;
1699;SDS011;847;48.058;7.810;2023-01-28T14:18:54;8.13;;;5.80;;
1699;SDS011;847;48.058;7.810;2023-01-28T14:21:24;5.53;;;5.03;;
1699;SDS011;847;48.058;7.810;2023-01-28T14:23:53;6.37;;;4.93;;
1699;SDS011;847;48.058;7.810;2023-01-28T14:26:30;8.00;;;6.10;;
1699;SDS011;847;48.058;7.810;2023-01-28T14:29:14;7.83;;;5.07;;
1699;SDS011;847;48.058;7.810;2023-01-28T14:31:47;8.37;;;6.90;;
1699;SDS011;847;48.058;7.810;2023-01-28T14:34:18;5.17;;;4.50;;
1699;SDS011;847;48.058;7.810;2023-01-28T14:36:49;7.43;;;5.40;;
1699;SDS011;847;48.058;7.810;2023-01-28T14:39:20;9.03;;;7.20;;
1699;SDS011;847;48.058;7.810;2023-01-28T14:41:51;9.80;;;6.43;;
1699;SDS011;847;48.058;7.810;2023-01-28T14:44:24;9.80;;;7.37;;
1699;SDS011;847;48.058;7.810;2023-01-28T14:46:57;11.27;;;8.50;;
1699;SDS011;847;48.058;7.810;2023-01-28T14:49:40;12.57;;;11.10;;
1699;SDS011;847;48.058;7.810;2023-01-28T14:52:27;14.60;;;12.63;;
1699;SDS011;847;48.058;7.810;2023-01-28T14:55:10;15.83;;;12.07;;
1699;SDS011;847;48.058;7.810;2023-01-28T14:57:48;5.90;;;4.50;;
1699;SDS011;847;48.058;7.810;2023-01-28T15:00:21;5.47;;;4.50;;
1699;SDS011;847;48.058;7.810;2023-01-28T15:02:49;4.90;;;4.30;;
1699;SDS011;847;48.058;7.810;2023-01-28T15:05:18;5.30;;;4.80;;
1699;SDS011;847;48.058;7.810;2023-01-28T15:07:46;6.53;;;5.20;;
1699;SDS011;847;48.058;7.810;2023-01-28T15:10:15;6.90;;;5.53;;
1699;SDS011;847;48.058;7.810;2023-01-28T15:12:44;7.30;;;5.10;;
1699;SDS011;847;48.058;7.810;2023-01-28T15:15:18;5.23;;;4.73;;
1699;SDS011;847;48.058;7.810;2023-01-28T15:17:50;8.40;;;6.30;;
1699;SDS011;847;48.058;7.810;2023-01-28T15:20:19;7.93;;;6.03;;
1699;SDS011;847;48.058;7.810;2023-01-28T15:22:49;8.97;;;6.00;;
1699;SDS011;847;48.058;7.810;2023-01-28T15:25:17;10.73;;;6.23;;
1699;SDS011;847;48.058;7.810;2023-01-28T15:27:46;8.07;;;6.07;;
1699;SDS011;847;48.058;7.810;2023-01-28T15:30:19;6.37;;;4.50;;
1699;SDS011;847;48.058;7.810;2023-01-28T15:32:59;6.37;;;5.60;;
1699;SDS011;847;48.058;7.810;2023-01-28T15:35:27;9.60;;;7.43;;
1699;SDS011;847;48.058;7.810;2023-01-28T15:37:54;8.03;;;6.53;;
1699;SDS011;847;48.058;7.810;2023-01-28T15:40:22;9.87;;;6.50;;
1699;SDS011;847;48.058;7.810;2023-01-28T15:42:50;8.30;;;5.97;;
1699;SDS011;847;48.058;7.810;2023-01-28T15:45:19;7.30;;;6.23;;
1699;SDS011;847;48.058;7.810;2023-01-28T15:47:50;10.27;;;7.17;;
1699;SDS011;847;48.058;7.810;2023-01-28T15:50:26;7.77;;;5.33;;
1699;SDS011;847;48.058;7.810;2023-01-28T15:52:53;6.00;;;4.93;;
1699;SDS011;847;48.058;7.810;2023-01-28T15:55:27;8.73;;;5.83;;
1699;SDS011;847;48.058;7.810;2023-01-28T15:58:07;6.40;;;5.43;;
1699;SDS011;847;48.058;7.810;2023-01-28T16:00:42;8.87;;;6.90;;
1699;SDS011;847;48.058;7.810;2023-01-28T16:03:09;10.17;;;7.60;;
1699;SDS011;847;48.058;7.810;2023-01-28T16:05:51;11.60;;;8.47;;
1699;SDS011;847;48.058;7.810;2023-01-28T16:08:23;11.97;;;8.43;;
1699;SDS011;847;48.058;7.810;2023-01-28T16:10:54;12.30;;;8.73;;
1699;SDS011;847;48.058;7.810;2023-01-28T16:13:23;13.37;;;9.63;;
1699;SDS011;847;48.058;7.810;2023-01-28T16:15:54;11.77;;;9.30;;
1699;SDS011;847;48.058;7.810;2023-01-28T16:18:25;13.00;;;9.27;;
1699;SDS011;847;48.058;7.810;2023-01-28T16:20:56;12.87;;;9.67;;
1699;SDS011;847;48.058;7.810;2023-01-28T16:23:24;14.13;;;8.90;;